sensor_id;sensor_type;location;lat;lon;timestamp;P1;durP1;ratioP1;P2;durP2;ratioP2
980;SDS011;479;53.514;9.994;2022-07-09T00:01:40;8.07;;;5.43;;
980;SDS011;479;53.514;9.994;2022-07-09T00:04:08;9.17;;;5.40;;
980;SDS011;479;53.514;9.994;2022-07-09T00:06:35;10.43;;;5.37;;
980;SDS011;479;53.514;9.994;2022-07-09T00:09:02;7.50;;;5.50;;
980;SDS011;479;53.514;9.994;2022-07-09T00:11:29;14.67;;;6.00;;
980;SDS011;479;53.514;9.994;2022-07-09T00:13:55;11.50;;;5.73;;
980;SDS011;479;53.514;9.994;2022-07-09T00:16:23;7.57;;;5.53;;
980;SDS011;479;53.514;9.994;2022-07-09T00:18:49;9.30;;;5.63;;
980;SDS011;479;53.514;9.994;2022-07-09T00:21:18;10.53;;;5.00;;
980;SDS011;479;53.514;9.994;2022-07-09T00:23:45;11.13;;;4.90;;
980;SDS011;479;53.514;9.994;2022-07-09T00:26:11;9.43;;;4.67;;
980;SDS011;479;53.514;9.994;2022-07-09T00:28:38;7.73;;;4.90;;
980;SDS011;479;53.514;9.994;2022-07-09T00:31:05;10.00;;;5.43;;
980;SDS011;479;53.514;9.994;2022-07-09T00:33:32;9.93;;;5.67;;
980;SDS011;479;53.514;9.994;2022-07-09T00:35:59;10.30;;;5.13;;
980;SDS011;479;53.514;9.994;2022-07-09T00:38:27;11.63;;;5.77;;
980;SDS011;479;53.514;9.994;2022-07-09T00:40:54;11.27;;;6.87;;
980;SDS011;479;53.514;9.994;2022-07-09T00:43:21;11.63;;;6.23;;
980;SDS011;479;53.514;9.994;2022-07-09T00:45:49;10.03;;;5.47;;
980;SDS011;479;53.514;9.994;2022-07-09T00:48:16;8.97;;;5.00;;
980;SDS011;479;53.514;9.994;2022-07-09T00:50:44;12.00;;;4.97;;
980;SDS011;479;53.514;9.994;2022-07-09T00:53:12;7.10;;;5.03;;
980;SDS011;479;53.514;9.994;2022-07-09T00:55:42;11.63;;;5.50;;
980;SDS011;479;53.514;9.994;2022-07-09T00:58:10;5.60;;;5.00;;
980;SDS011;479;53.514;9.994;2022-07-09T01:00:38;9.20;;;5.90;;
980;SDS011;479;53.514;9.994;2022-07-09T01:03:07;10.67;;;5.80;;
980;SDS011;479;53.514;9.994;2022-07-09T01:05:34;11.33;;;5.77;;
980;SDS011;479;53.514;9.994;2022-07-09T01:08:02;14.83;;;5.43;;
980;SDS011;479;53.514;9.994;2022-07-09T01:10:30;10.97;;;5.60;;
980;SDS011;479;53.514;9.994;2022-07-09T01:12:59;8.97;;;5.37;;
980;SDS011;479;53.514;9.994;2022-07-09T01:15:27;10.60;;;4.77;;
980;SDS011;479;53.514;9.994;2022-07-09T01:17:54;9.30;;;5.07;;
980;SDS011;479;53.514;9.994;2022-07-09T01:20:24;11.30;;;4.83;;
980;SDS011;479;53.514;9.994;2022-07-09T01:22:51;11.37;;;5.70;;
980;SDS011;479;53.514;9.994;2022-07-09T01:25:19;12.20;;;5.90;;
980;SDS011;479;53.514;9.994;2022-07-09T01:27:46;15.87;;;6.10;;
980;SDS011;479;53.514;9.994;2022-07-09T01:30:22;11.00;;;6.40;;
980;SDS011;479;53.514;9.994;2022-07-09T01:32:50;11.97;;;5.37;;
980;SDS011;479;53.514;9.994;2022-07-09T01:35:17;10.70;;;5.87;;
980;SDS011;479;53.514;9.994;2022-07-09T01:37:45;10.90;;;5.67;;
980;SDS011;479;53.514;9.994;2022-07-09T01:40:13;8.47;;;5.57;;
980;SDS011;479;53.514;9.994;2022-07-09T01:42:40;8.20;;;4.90;;
980;SDS011;479;53.514;9.994;2022-07-09T01:45:07;11.83;;;5.40;;
980;SDS011;479;53.514;9.994;2022-07-09T01:47:35;7.33;;;4.93;;
980;SDS011;479;53.514;9.994;2022-07-09T01:50:02;10.90;;;7.77;;
980;SDS011;479;53.514;9.994;2022-07-09T01:52:29;13.17;;;5.63;;
980;SDS011;479;53.514;9.994;2022-07-09T01:54:58;10.80;;;4.83;;
980;SDS011;479;53.514;9.994;2022-07-09T01:57:25;8.30;;;4.93;;
980;SDS011;479;53.514;9.994;2022-07-09T01:59:52;7.90;;;5.40;;
980;SDS011;479;53.514;9.994;2022-07-09T02:02:19;10.87;;;5.47;;
980;SDS011;479;53.514;9.994;2022-07-09T02:04:46;10.63;;;5.40;;
980;SDS011;479;53.514;9.994;2022-07-09T02:07:13;9.63;;;5.17;;
980;SDS011;479;53.514;9.994;2022-07-09T02:09:40;9.60;;;5.07;;
980;SDS011;479;53.514;9.994;2022-07-09T02:12:09;6.33;;;5.67;;
980;SDS011;479;53.514;9.994;2022-07-09T02:14:36;8.90;;;4.60;;
980;SDS011;479;53.514;9.994;2022-07-09T02:17:03;12.47;;;5.87;;
980;SDS011;479;53.514;9.994;2022-07-09T02:19:31;8.07;;;5.60;;
980;SDS011;479;53.514;9.994;2022-07-09T02:21:58;8.73;;;4.90;;
980;SDS011;479;53.514;9.994;2022-07-09T02:24:24;7.73;;;5.20;;
980;SDS011;479;53.514;9.994;2022-07-09T02:26:51;7.13;;;4.80;;
980;SDS011;479;53.514;9.994;2022-07-09T02:29:20;8.67;;;4.53;;
980;SDS011;479;53.514;9.994;2022-07-09T02:31:46;6.77;;;5.20;;
980;SDS011;479;53.514;9.994;2022-07-09T02:34:13;6.23;;;4.50;;
980;SDS011;479;53.514;9.994;2022-07-09T02:36:40;10.40;;;5.77;;
980;SDS011;479;53.514;9.994;2022-07-09T02:39:07;8.50;;;4.70;;
980;SDS011;479;53.514;9.994;2022-07-09T02:41:34;10.63;;;5.77;;
980;SDS011;479;53.514;9.994;2022-07-09T02:44:01;5.83;;;5.07;;
980;SDS011;479;53.514;9.994;2022-07-09T02:46:30;9.87;;;5.07;;
980;SDS011;479;53.514;9.994;2022-07-09T02:48:56;10.83;;;5.33;;
980;SDS011;479;53.514;9.994;2022-07-09T02:51:23;6.43;;;4.50;;
980;SDS011;479;53.514;9.994;2022-07-09T02:53:50;16.93;;;6.07;;
980;SDS011;479;53.514;9.994;2022-07-09T02:56:17;9.00;;;5.30;;
980;SDS011;479;53.514;9.994;2022-07-09T02:58:44;9.27;;;4.50;;
980;SDS011;479;53.514;9.994;2022-07-09T03:01:10;10.13;;;4.50;;
980;SDS011;479;53.514;9.994;2022-07-09T03:03:39;6.27;;;4.67;;
980;SDS011;479;53.514;9.994;2022-07-09T03:06:05;16.57;;;5.07;;
980;SDS011;479;53.514;9.994;2022-07-09T03:08:33;5.97;;;4.90;;
980;SDS011;479;53.514;9.994;2022-07-09T03:11:00;10.87;;;4.90;;
980;SDS011;479;53.514;9.994;2022-07-09T03:13:27;11.30;;;5.50;;
980;SDS011;479;53.514;9.994;2022-07-09T03:15:54;8.43;;;5.13;;
980;SDS011;479;53.514;9.994;2022-07-09T03:18:21;8.30;;;4.90;;
980;SDS011;479;53.514;9.994;2022-07-09T03:20:49;7.37;;;4.70;;
980;SDS011;479;53.514;9.994;2022-07-09T03:23:16;9.10;;;5.23;;
980;SDS011;479;53.514;9.994;2022-07-09T03:25:43;9.07;;;5.50;;
980;SDS011;479;53.514;9.994;2022-07-09T03:28:10;6.30;;;5.40;;
980;SDS011;479;53.514;9.994;2022-07-09T03:30:37;5.33;;;4.13;;
980;SDS011;479;53.514;9.994;2022-07-09T03:33:04;11.50;;;5.70;;
980;SDS011;479;53.514;9.994;2022-07-09T03:35:31;10.47;;;6.17;;
980;SDS011;479;53.514;9.994;2022-07-09T03:37:59;6.03;;;5.43;;
980;SDS011;479;53.514;9.994;2022-07-09T03:40:26;7.17;;;5.27;;
980;SDS011;479;53.514;9.994;2022-07-09T03:42:54;11.93;;;5.90;;
980;SDS011;479;53.514;9.994;2022-07-09T03:45:21;10.50;;;7.53;;
980;SDS011;479;53.514;9.994;2022-07-09T03:47:48;8.27;;;5.73;;
980;SDS011;479;53.514;9.994;2022-07-09T03:50:15;8.30;;;5.50;;
980;SDS011;479;53.514;9.994;2022-07-09T03:52:42;11.70;;;6.20;;
980;SDS011;479;53.514;9.994;2022-07-09T03:55:11;6.17;;;5.57;;
980;SDS011;479;53.514;9.994;2022-07-09T03:57:38;11.20;;;9.00;;
980;SDS011;479;53.514;9.994;2022-07-09T04:00:05;8.70;;;7.10;;
980;SDS011;479;53.514;9.994;2022-07-09T04:02:37;7.60;;;6.00;;
980;SDS011;479;53.514;9.994;2022-07-09T04:05:05;8.90;;;7.67;;
980;SDS011;479;53.514;9.994;2022-07-09T04:07:33;12.30;;;7.10;;
980;SDS011;479;53.514;9.994;2022-07-09T04:09:59;6.50;;;5.17;;
980;SDS011;479;53.514;9.994;2022-07-09T04:12:28;13.17;;;6.97;;
980;SDS011;479;53.514;9.994;2022-07-09T04:14:54;6.50;;;4.90;;
980;SDS011;479;53.514;9.994;2022-07-09T04:17:21;7.00;;;6.23;;
980;SDS011;479;53.514;9.994;2022-07-09T04:19:48;7.77;;;5.33;;
980;SDS011;479;53.514;9.994;2022-07-09T04:22:15;8.50;;;6.13;;
980;SDS011;479;53.514;9.994;2022-07-09T04:24:42;9.77;;;5.30;;
980;SDS011;479;53.514;9.994;2022-07-09T04:27:09;12.03;;;5.73;;
980;SDS011;479;53.514;9.994;2022-07-09T04:29:37;11.77;;;5.30;;
980;SDS011;479;53.514;9.994;2022-07-09T04:32:04;10.33;;;6.57;;
980;SDS011;479;53.514;9.994;2022-07-09T04:34:31;9.10;;;6.00;;
980;SDS011;479;53.514;9.994;2022-07-09T04:36:58;7.30;;;5.70;;
980;SDS011;479;53.514;9.994;2022-07-09T04:39:25;6.90;;;5.67;;
980;SDS011;479;53.514;9.994;2022-07-09T04:41:52;12.27;;;6.37;;
980;SDS011;479;53.514;9.994;2022-07-09T04:44:19;8.23;;;6.30;;
980;SDS011;479;53.514;9.994;2022-07-09T04:46:47;7.47;;;5.40;;
980;SDS011;479;53.514;9.994;2022-07-09T04:49:14;10.00;;;8.00;;
980;SDS011;479;53.514;9.994;2022-07-09T04:51:41;9.60;;;6.00;;
980;SDS011;479;53.514;9.994;2022-07-09T04:54:08;12.77;;;5.33;;
980;SDS011;479;53.514;9.994;2022-07-09T04:56:35;5.40;;;4.90;;
980;SDS011;479;53.514;9.994;2022-07-09T04:59:02;5.30;;;4.90;;
980;SDS011;479;53.514;9.994;2022-07-09T05:01:29;6.60;;;6.00;;
980;SDS011;479;53.514;9.994;2022-07-09T05:03:58;6.83;;;5.10;;
980;SDS011;479;53.514;9.994;2022-07-09T05:06:24;5.47;;;4.30;;
980;SDS011;479;53.514;9.994;2022-07-09T05:08:51;7.93;;;6.13;;
980;SDS011;479;53.514;9.994;2022-07-09T05:11:18;9.80;;;5.37;;
980;SDS011;479;53.514;9.994;2022-07-09T05:13:45;11.70;;;5.97;;
980;SDS011;479;53.514;9.994;2022-07-09T05:16:12;6.63;;;6.00;;
980;SDS011;479;53.514;9.994;2022-07-09T05:18:39;6.90;;;4.60;;
980;SDS011;479;53.514;9.994;2022-07-09T05:21:08;9.23;;;8.17;;
980;SDS011;479;53.514;9.994;2022-07-09T05:23:35;5.77;;;5.27;;
980;SDS011;479;53.514;9.994;2022-07-09T05:26:02;9.60;;;6.10;;
980;SDS011;479;53.514;9.994;2022-07-09T05:28:29;6.83;;;6.00;;
980;SDS011;479;53.514;9.994;2022-07-09T05:30:56;7.13;;;5.50;;
980;SDS011;479;53.514;9.994;2022-07-09T05:33:23;5.50;;;5.00;;
980;SDS011;479;53.514;9.994;2022-07-09T05:35:50;8.30;;;4.73;;
980;SDS011;479;53.514;9.994;2022-07-09T05:38:18;5.70;;;5.20;;
980;SDS011;479;53.514;9.994;2022-07-09T05:40:46;5.40;;;4.50;;
980;SDS011;479;53.514;9.994;2022-07-09T05:43:13;8.60;;;5.23;;
980;SDS011;479;53.514;9.994;2022-07-09T05:45:40;7.87;;;5.17;;
980;SDS011;479;53.514;9.994;2022-07-09T05:48:06;10.87;;;5.37;;
980;SDS011;479;53.514;9.994;2022-07-09T05:50:33;5.33;;;4.83;;
980;SDS011;479;53.514;9.994;2022-07-09T05:53:00;5.93;;;4.90;;
980;SDS011;479;53.514;9.994;2022-07-09T05:55:29;7.20;;;5.50;;
980;SDS011;479;53.514;9.994;2022-07-09T05:57:55;7.43;;;5.53;;
980;SDS011;479;53.514;9.994;2022-07-09T06:00:23;8.70;;;5.70;;
980;SDS011;479;53.514;9.994;2022-07-09T06:02:50;8.60;;;5.40;;
980;SDS011;479;53.514;9.994;2022-07-09T06:05:17;6.33;;;4.23;;
980;SDS011;479;53.514;9.994;2022-07-09T06:07:45;7.40;;;5.13;;
980;SDS011;479;53.514;9.994;2022-07-09T06:10:12;7.27;;;5.30;;
980;SDS011;479;53.514;9.994;2022-07-09T06:12:41;6.73;;;4.80;;
980;SDS011;479;53.514;9.994;2022-07-09T06:15:09;8.97;;;5.87;;
980;SDS011;479;53.514;9.994;2022-07-09T06:17:36;7.27;;;6.03;;
980;SDS011;479;53.514;9.994;2022-07-09T06:20:03;5.47;;;4.60;;
980;SDS011;479;53.514;9.994;2022-07-09T06:22:31;8.23;;;6.40;;
980;SDS011;479;53.514;9.994;2022-07-09T06:24:59;6.03;;;5.53;;
980;SDS011;479;53.514;9.994;2022-07-09T06:27:26;5.70;;;5.10;;
980;SDS011;479;53.514;9.994;2022-07-09T06:29:55;7.13;;;6.17;;
980;SDS011;479;53.514;9.994;2022-07-09T06:32:22;6.33;;;5.67;;
980;SDS011;479;53.514;9.994;2022-07-09T06:34:49;9.40;;;5.30;;
980;SDS011;479;53.514;9.994;2022-07-09T06:37:15;10.93;;;7.80;;
980;SDS011;479;53.514;9.994;2022-07-09T06:39:42;7.50;;;6.10;;
980;SDS011;479;53.514;9.994;2022-07-09T06:42:14;8.87;;;6.03;;
980;SDS011;479;53.514;9.994;2022-07-09T06:44:45;7.13;;;5.63;;
980;SDS011;479;53.514;9.994;2022-07-09T06:47:13;8.83;;;6.30;;
980;SDS011;479;53.514;9.994;2022-07-09T06:49:40;6.93;;;6.13;;
980;SDS011;479;53.514;9.994;2022-07-09T06:52:07;5.83;;;5.33;;
980;SDS011;479;53.514;9.994;2022-07-09T06:54:34;8.37;;;6.13;;
980;SDS011;479;53.514;9.994;2022-07-09T06:57:02;8.33;;;6.43;;
980;SDS011;479;53.514;9.994;2022-07-09T06:59:29;6.90;;;6.20;;
980;SDS011;479;53.514;9.994;2022-07-09T07:01:56;9.23;;;6.50;;
980;SDS011;479;53.514;9.994;2022-07-09T07:04:24;7.40;;;6.70;;
980;SDS011;479;53.514;9.994;2022-07-09T07:06:52;7.07;;;6.47;;
980;SDS011;479;53.514;9.994;2022-07-09T07:09:19;8.10;;;7.30;;
980;SDS011;479;53.514;9.994;2022-07-09T07:11:48;7.10;;;6.50;;
980;SDS011;479;53.514;9.994;2022-07-09T07:14:15;6.90;;;6.10;;
980;SDS011;479;53.514;9.994;2022-07-09T07:16:43;9.60;;;6.70;;
980;SDS011;479;53.514;9.994;2022-07-09T07:19:10;13.07;;;7.50;;
980;SDS011;479;53.514;9.994;2022-07-09T07:21:38;9.10;;;6.43;;
980;SDS011;479;53.514;9.994;2022-07-09T07:24:06;7.93;;;6.80;;
980;SDS011;479;53.514;9.994;2022-07-09T07:26:33;5.80;;;5.20;;
980;SDS011;479;53.514;9.994;2022-07-09T07:29:01;6.27;;;5.70;;
980;SDS011;479;53.514;9.994;2022-07-09T07:31:28;8.67;;;6.00;;
980;SDS011;479;53.514;9.994;2022-07-09T07:33:54;6.17;;;5.67;;
980;SDS011;479;53.514;9.994;2022-07-09T07:36:21;9.90;;;7.17;;
980;SDS011;479;53.514;9.994;2022-07-09T07:38:50;6.53;;;5.33;;
980;SDS011;479;53.514;9.994;2022-07-09T07:41:16;8.17;;;5.83;;
980;SDS011;479;53.514;9.994;2022-07-09T07:43:43;5.20;;;4.77;;
980;SDS011;479;53.514;9.994;2022-07-09T07:46:11;6.30;;;4.20;;
980;SDS011;479;53.514;9.994;2022-07-09T07:48:38;5.03;;;4.53;;
980;SDS011;479;53.514;9.994;2022-07-09T07:51:06;7.53;;;5.43;;
980;SDS011;479;53.514;9.994;2022-07-09T07:53:34;5.07;;;4.57;;
980;SDS011;479;53.514;9.994;2022-07-09T07:56:02;4.80;;;4.07;;
980;SDS011;479;53.514;9.994;2022-07-09T07:58:30;7.10;;;4.63;;
980;SDS011;479;53.514;9.994;2022-07-09T08:00:58;6.93;;;4.70;;
980;SDS011;479;53.514;9.994;2022-07-09T08:03:25;5.20;;;4.70;;
980;SDS011;479;53.514;9.994;2022-07-09T08:05:52;3.70;;;3.40;;
980;SDS011;479;53.514;9.994;2022-07-09T08:08:19;4.53;;;4.17;;
980;SDS011;479;53.514;9.994;2022-07-09T08:10:46;4.30;;;3.90;;
980;SDS011;479;53.514;9.994;2022-07-09T08:13:15;4.37;;;3.80;;
980;SDS011;479;53.514;9.994;2022-07-09T08:15:42;5.20;;;3.57;;
980;SDS011;479;53.514;9.994;2022-07-09T08:18:10;5.57;;;5.07;;
980;SDS011;479;53.514;9.994;2022-07-09T08:20:39;4.57;;;3.73;;
980;SDS011;479;53.514;9.994;2022-07-09T08:23:06;4.20;;;3.80;;
980;SDS011;479;53.514;9.994;2022-07-09T08:25:34;4.90;;;4.43;;
980;SDS011;479;53.514;9.994;2022-07-09T08:28:01;4.27;;;3.77;;
980;SDS011;479;53.514;9.994;2022-07-09T08:30:29;5.67;;;4.00;;
980;SDS011;479;53.514;9.994;2022-07-09T08:32:56;6.33;;;4.73;;
980;SDS011;479;53.514;9.994;2022-07-09T08:35:23;4.70;;;4.40;;
980;SDS011;479;53.514;9.994;2022-07-09T08:37:51;5.57;;;4.80;;
980;SDS011;479;53.514;9.994;2022-07-09T08:40:19;8.67;;;5.30;;
980;SDS011;479;53.514;9.994;2022-07-09T08:42:46;4.90;;;4.50;;
980;SDS011;479;53.514;9.994;2022-07-09T08:45:14;4.07;;;3.67;;
980;SDS011;479;53.514;9.994;2022-07-09T08:47:44;4.10;;;3.70;;
980;SDS011;479;53.514;9.994;2022-07-09T08:50:12;4.30;;;3.90;;
980;SDS011;479;53.514;9.994;2022-07-09T08:52:40;5.00;;;3.33;;
980;SDS011;479;53.514;9.994;2022-07-09T08:55:07;4.57;;;3.63;;
980;SDS011;479;53.514;9.994;2022-07-09T08:57:36;3.60;;;3.30;;
980;SDS011;479;53.514;9.994;2022-07-09T09:00:03;3.30;;;2.30;;
980;SDS011;479;53.514;9.994;2022-07-09T09:02:35;4.13;;;3.10;;
980;SDS011;479;53.514;9.994;2022-07-09T09:05:08;3.73;;;3.23;;
980;SDS011;479;53.514;9.994;2022-07-09T09:07:36;3.43;;;3.17;;
980;SDS011;479;53.514;9.994;2022-07-09T09:10:03;4.10;;;2.67;;
980;SDS011;479;53.514;9.994;2022-07-09T09:12:30;3.50;;;2.97;;
980;SDS011;479;53.514;9.994;2022-07-09T09:14:58;3.77;;;3.00;;
980;SDS011;479;53.514;9.994;2022-07-09T09:17:25;3.57;;;2.93;;
980;SDS011;479;53.514;9.994;2022-07-09T09:19:52;3.43;;;3.03;;
980;SDS011;479;53.514;9.994;2022-07-09T09:22:21;3.57;;;3.23;;
980;SDS011;479;53.514;9.994;2022-07-09T09:24:51;3.97;;;3.50;;
980;SDS011;479;53.514;9.994;2022-07-09T09:27:26;4.17;;;3.70;;
980;SDS011;479;53.514;9.994;2022-07-09T09:29:54;3.60;;;3.30;;
980;SDS011;479;53.514;9.994;2022-07-09T09:32:24;4.67;;;2.60;;
980;SDS011;479;53.514;9.994;2022-07-09T09:34:51;4.03;;;3.40;;
980;SDS011;479;53.514;9.994;2022-07-09T09:37:26;4.37;;;2.70;;
980;SDS011;479;53.514;9.994;2022-07-09T09:39:54;6.00;;;3.00;;
980;SDS011;479;53.514;9.994;2022-07-09T09:42:22;4.90;;;3.33;;
980;SDS011;479;53.514;9.994;2022-07-09T09:44:51;3.57;;;3.30;;
980;SDS011;479;53.514;9.994;2022-07-09T09:47:20;3.53;;;2.20;;
980;SDS011;479;53.514;9.994;2022-07-09T09:49:50;4.73;;;3.80;;
980;SDS011;479;53.514;9.994;2022-07-09T09:52:18;3.03;;;2.63;;
980;SDS011;479;53.514;9.994;2022-07-09T09:54:47;3.17;;;2.87;;
980;SDS011;479;53.514;9.994;2022-07-09T09:57:17;2.60;;;2.33;;
980;SDS011;479;53.514;9.994;2022-07-09T09:59:44;2.93;;;2.17;;
980;SDS011;479;53.514;9.994;2022-07-09T10:02:12;4.00;;;2.70;;
980;SDS011;479;53.514;9.994;2022-07-09T10:04:40;3.83;;;3.50;;
980;SDS011;479;53.514;9.994;2022-07-09T10:07:09;4.90;;;3.33;;
980;SDS011;479;53.514;9.994;2022-07-09T10:09:37;2.77;;;2.30;;
980;SDS011;479;53.514;9.994;2022-07-09T10:12:06;2.90;;;2.50;;
980;SDS011;479;53.514;9.994;2022-07-09T10:14:36;3.20;;;2.90;;
980;SDS011;479;53.514;9.994;2022-07-09T10:17:10;2.60;;;2.40;;
980;SDS011;479;53.514;9.994;2022-07-09T10:19:38;3.83;;;2.40;;
980;SDS011;479;53.514;9.994;2022-07-09T10:22:17;2.93;;;2.73;;
980;SDS011;479;53.514;9.994;2022-07-09T10:24:44;3.13;;;2.80;;
980;SDS011;479;53.514;9.994;2022-07-09T10:27:13;4.00;;;2.40;;
980;SDS011;479;53.514;9.994;2022-07-09T10:29:51;6.23;;;2.60;;
980;SDS011;479;53.514;9.994;2022-07-09T10:32:21;2.87;;;2.67;;
980;SDS011;479;53.514;9.994;2022-07-09T10:35:00;4.77;;;2.40;;
980;SDS011;479;53.514;9.994;2022-07-09T10:37:33;3.30;;;2.03;;
980;SDS011;479;53.514;9.994;2022-07-09T10:42:58;2.90;;;2.57;;
980;SDS011;479;53.514;9.994;2022-07-09T10:45:27;2.67;;;2.47;;
980;SDS011;479;53.514;9.994;2022-07-09T10:47:57;2.20;;;2.00;;
980;SDS011;479;53.514;9.994;2022-07-09T10:50:27;2.73;;;2.47;;
980;SDS011;479;53.514;9.994;2022-07-09T10:52:56;3.97;;;2.30;;
980;SDS011;479;53.514;9.994;2022-07-09T10:55:25;3.10;;;2.40;;
980;SDS011;479;53.514;9.994;2022-07-09T10:57:53;4.43;;;2.17;;
980;SDS011;479;53.514;9.994;2022-07-09T11:00:22;3.03;;;2.40;;
980;SDS011;479;53.514;9.994;2022-07-09T11:02:54;5.00;;;2.97;;
980;SDS011;479;53.514;9.994;2022-07-09T11:05:22;3.10;;;2.63;;
980;SDS011;479;53.514;9.994;2022-07-09T11:07:53;3.07;;;2.43;;
980;SDS011;479;53.514;9.994;2022-07-09T11:10:25;3.13;;;2.83;;
980;SDS011;479;53.514;9.994;2022-07-09T11:12:52;3.00;;;2.80;;
980;SDS011;479;53.514;9.994;2022-07-09T11:15:20;4.07;;;2.80;;
980;SDS011;479;53.514;9.994;2022-07-09T11:17:55;2.93;;;2.23;;
980;SDS011;479;53.514;9.994;2022-07-09T11:20:23;2.93;;;2.60;;
980;SDS011;479;53.514;9.994;2022-07-09T11:22:50;2.83;;;2.63;;
980;SDS011;479;53.514;9.994;2022-07-09T11:25:17;2.60;;;2.40;;
980;SDS011;479;53.514;9.994;2022-07-09T11:27:44;3.30;;;2.70;;
980;SDS011;479;53.514;9.994;2022-07-09T11:30:11;2.80;;;2.53;;
980;SDS011;479;53.514;9.994;2022-07-09T11:32:41;3.07;;;1.90;;
980;SDS011;479;53.514;9.994;2022-07-09T11:35:09;2.07;;;1.87;;
980;SDS011;479;53.514;9.994;2022-07-09T11:37:36;2.30;;;2.10;;
980;SDS011;479;53.514;9.994;2022-07-09T11:40:04;2.90;;;2.30;;
980;SDS011;479;53.514;9.994;2022-07-09T11:42:32;2.17;;;2.07;;
980;SDS011;479;53.514;9.994;2022-07-09T11:45:07;2.90;;;2.50;;
980;SDS011;479;53.514;9.994;2022-07-09T11:47:37;3.07;;;2.23;;
980;SDS011;479;53.514;9.994;2022-07-09T11:50:06;2.40;;;2.20;;
980;SDS011;479;53.514;9.994;2022-07-09T11:52:36;4.67;;;3.00;;
980;SDS011;479;53.514;9.994;2022-07-09T11:55:04;3.30;;;3.00;;
980;SDS011;479;53.514;9.994;2022-07-09T11:57:32;3.23;;;2.93;;
980;SDS011;479;53.514;9.994;2022-07-09T12:00:01;2.37;;;2.00;;
980;SDS011;479;53.514;9.994;2022-07-09T12:02:36;2.40;;;2.20;;
980;SDS011;479;53.514;9.994;2022-07-09T12:05:05;3.30;;;2.53;;
980;SDS011;479;53.514;9.994;2022-07-09T12:07:34;2.53;;;2.10;;
980;SDS011;479;53.514;9.994;2022-07-09T12:10:03;4.10;;;3.50;;
980;SDS011;479;53.514;9.994;2022-07-09T12:12:32;4.17;;;2.80;;
980;SDS011;479;53.514;9.994;2022-07-09T12:15:01;2.67;;;2.43;;
980;SDS011;479;53.514;9.994;2022-07-09T12:17:30;2.97;;;2.77;;
980;SDS011;479;53.514;9.994;2022-07-09T12:19:58;3.83;;;2.73;;
980;SDS011;479;53.514;9.994;2022-07-09T12:22:26;3.63;;;3.10;;
980;SDS011;479;53.514;9.994;2022-07-09T12:24:53;4.73;;;3.50;;
980;SDS011;479;53.514;9.994;2022-07-09T12:27:20;3.97;;;3.67;;
980;SDS011;479;53.514;9.994;2022-07-09T12:29:48;4.53;;;4.07;;
980;SDS011;479;53.514;9.994;2022-07-09T12:32:18;6.30;;;5.70;;
980;SDS011;479;53.514;9.994;2022-07-09T12:34:45;5.10;;;3.50;;
980;SDS011;479;53.514;9.994;2022-07-09T12:37:12;2.63;;;2.50;;
980;SDS011;479;53.514;9.994;2022-07-09T12:39:40;2.77;;;2.13;;
980;SDS011;479;53.514;9.994;2022-07-09T12:42:08;3.23;;;2.50;;
980;SDS011;479;53.514;9.994;2022-07-09T12:44:34;2.83;;;2.63;;
980;SDS011;479;53.514;9.994;2022-07-09T12:47:01;2.97;;;2.57;;
980;SDS011;479;53.514;9.994;2022-07-09T12:49:31;10.30;;;2.87;;
980;SDS011;479;53.514;9.994;2022-07-09T12:51:58;3.83;;;3.40;;
980;SDS011;479;53.514;9.994;2022-07-09T12:54:25;5.73;;;3.97;;
980;SDS011;479;53.514;9.994;2022-07-09T12:56:53;6.30;;;5.67;;
980;SDS011;479;53.514;9.994;2022-07-09T12:59:21;7.80;;;4.90;;
980;SDS011;479;53.514;9.994;2022-07-09T13:01:48;5.57;;;3.70;;
980;SDS011;479;53.514;9.994;2022-07-09T13:04:15;6.53;;;3.50;;
980;SDS011;479;53.514;9.994;2022-07-09T13:06:42;3.53;;;2.90;;
980;SDS011;479;53.514;9.994;2022-07-09T13:09:09;3.23;;;2.93;;
980;SDS011;479;53.514;9.994;2022-07-09T13:11:37;3.63;;;2.63;;
980;SDS011;479;53.514;9.994;2022-07-09T13:14:08;7.23;;;3.60;;
980;SDS011;479;53.514;9.994;2022-07-09T13:16:35;5.13;;;3.77;;
980;SDS011;479;53.514;9.994;2022-07-09T13:19:02;6.50;;;3.87;;
980;SDS011;479;53.514;9.994;2022-07-09T13:21:29;3.83;;;3.00;;
980;SDS011;479;53.514;9.994;2022-07-09T13:23:56;3.67;;;2.40;;
980;SDS011;479;53.514;9.994;2022-07-09T13:26:23;9.23;;;2.80;;
980;SDS011;479;53.514;9.994;2022-07-09T13:28:51;5.57;;;3.07;;
980;SDS011;479;53.514;9.994;2022-07-09T13:31:19;3.27;;;1.90;;
980;SDS011;479;53.514;9.994;2022-07-09T13:33:47;2.33;;;1.77;;
980;SDS011;479;53.514;9.994;2022-07-09T13:36:17;2.90;;;2.30;;
980;SDS011;479;53.514;9.994;2022-07-09T13:38:45;2.80;;;2.33;;
980;SDS011;479;53.514;9.994;2022-07-09T13:41:12;3.47;;;2.40;;
980;SDS011;479;53.514;9.994;2022-07-09T13:43:39;4.00;;;2.13;;
980;SDS011;479;53.514;9.994;2022-07-09T13:46:06;3.50;;;2.80;;
980;SDS011;479;53.514;9.994;2022-07-09T13:48:34;4.80;;;2.60;;
980;SDS011;479;53.514;9.994;2022-07-09T13:51:01;8.53;;;4.07;;
980;SDS011;479;53.514;9.994;2022-07-09T13:53:28;3.10;;;2.20;;
980;SDS011;479;53.514;9.994;2022-07-09T13:55:57;3.00;;;2.47;;
980;SDS011;479;53.514;9.994;2022-07-09T13:58:24;2.80;;;2.20;;
980;SDS011;479;53.514;9.994;2022-07-09T14:00:51;4.17;;;1.97;;
980;SDS011;479;53.514;9.994;2022-07-09T14:03:18;2.93;;;2.37;;
980;SDS011;479;53.514;9.994;2022-07-09T14:05:46;5.10;;;2.30;;
980;SDS011;479;53.514;9.994;2022-07-09T14:08:13;3.47;;;2.03;;
980;SDS011;479;53.514;9.994;2022-07-09T14:10:40;2.93;;;1.70;;
980;SDS011;479;53.514;9.994;2022-07-09T14:13:07;6.00;;;2.67;;
980;SDS011;479;53.514;9.994;2022-07-09T14:15:35;3.33;;;2.33;;
980;SDS011;479;53.514;9.994;2022-07-09T14:18:02;2.40;;;2.00;;
980;SDS011;479;53.514;9.994;2022-07-09T14:20:29;4.87;;;2.93;;
980;SDS011;479;53.514;9.994;2022-07-09T14:22:57;2.60;;;2.07;;
980;SDS011;479;53.514;9.994;2022-07-09T14:25:24;5.20;;;2.40;;
980;SDS011;479;53.514;9.994;2022-07-09T14:27:51;5.77;;;2.40;;
980;SDS011;479;53.514;9.994;2022-07-09T14:30:19;3.17;;;2.17;;
980;SDS011;479;53.514;9.994;2022-07-09T14:32:46;5.07;;;2.70;;
980;SDS011;479;53.514;9.994;2022-07-09T14:35:12;4.07;;;1.90;;
980;SDS011;479;53.514;9.994;2022-07-09T14:37:40;7.37;;;3.00;;
980;SDS011;479;53.514;9.994;2022-07-09T14:40:09;3.33;;;1.90;;
980;SDS011;479;53.514;9.994;2022-07-09T14:42:37;3.10;;;2.80;;
980;SDS011;479;53.514;9.994;2022-07-09T14:45:06;2.70;;;2.40;;
980;SDS011;479;53.514;9.994;2022-07-09T14:47:33;3.77;;;2.50;;
980;SDS011;479;53.514;9.994;2022-07-09T14:50:00;3.53;;;2.37;;
980;SDS011;479;53.514;9.994;2022-07-09T14:52:27;4.33;;;2.87;;
980;SDS011;479;53.514;9.994;2022-07-09T14:54:54;6.93;;;2.27;;
980;SDS011;479;53.514;9.994;2022-07-09T14:57:22;5.57;;;2.30;;
980;SDS011;479;53.514;9.994;2022-07-09T14:59:49;4.90;;;2.70;;
980;SDS011;479;53.514;9.994;2022-07-09T15:02:16;4.00;;;2.20;;
980;SDS011;479;53.514;9.994;2022-07-09T15:04:43;5.97;;;2.30;;
980;SDS011;479;53.514;9.994;2022-07-09T15:07:10;5.20;;;2.23;;
980;SDS011;479;53.514;9.994;2022-07-09T15:09:37;4.10;;;3.07;;
980;SDS011;479;53.514;9.994;2022-07-09T15:12:04;5.97;;;2.80;;
980;SDS011;479;53.514;9.994;2022-07-09T15:14:32;3.80;;;1.90;;
980;SDS011;479;53.514;9.994;2022-07-09T15:16:59;3.00;;;2.03;;
980;SDS011;479;53.514;9.994;2022-07-09T15:19:27;4.47;;;2.80;;
980;SDS011;479;53.514;9.994;2022-07-09T15:21:54;8.73;;;2.40;;
980;SDS011;479;53.514;9.994;2022-07-09T15:24:21;2.13;;;1.60;;
980;SDS011;479;53.514;9.994;2022-07-09T15:26:48;4.27;;;2.40;;
980;SDS011;479;53.514;9.994;2022-07-09T15:29:15;5.10;;;2.43;;
980;SDS011;479;53.514;9.994;2022-07-09T15:31:43;2.37;;;2.00;;
980;SDS011;479;53.514;9.994;2022-07-09T15:34:11;2.20;;;1.77;;
980;SDS011;479;53.514;9.994;2022-07-09T15:36:37;4.63;;;2.10;;
980;SDS011;479;53.514;9.994;2022-07-09T15:39:04;4.50;;;2.33;;
980;SDS011;479;53.514;9.994;2022-07-09T15:41:31;2.17;;;1.63;;
980;SDS011;479;53.514;9.994;2022-07-09T15:43:59;4.33;;;2.10;;
980;SDS011;479;53.514;9.994;2022-07-09T15:46:28;4.50;;;1.80;;
980;SDS011;479;53.514;9.994;2022-07-09T15:48:56;2.83;;;1.83;;